sensor_id;sensor_type;location;lat;lon;timestamp;temperature;humidity
25346;DHT22;13300;51.032;3.710;2023-03-04T00:00:09;7.90;99.90
25346;DHT22;13300;51.032;3.710;2023-03-04T00:02:35;8.10;99.90
25346;DHT22;13300;51.032;3.710;2023-03-04T00:05:00;8.20;99.90
25346;DHT22;13300;51.032;3.710;2023-03-04T00:07:28;8.20;99.90
25346;DHT22;13300;51.032;3.710;2023-03-04T00:09:53;8.10;99.90
25346;DHT22;13300;51.032;3.710;2023-03-04T00:12:19;8.10;99.90
25346;DHT22;13300;51.032;3.710;2023-03-04T00:14:45;8.10;99.90
25346;DHT22;13300;51.032;3.710;2023-03-04T00:17:11;7.90;99.90
25346;DHT22;13300;51.032;3.710;2023-03-04T00:19:37;7.80;99.90
25346;DHT22;13300;51.032;3.710;2023-03-04T00:22:03;7.80;99.90
25346;DHT22;13300;51.032;3.710;2023-03-04T00:24:29;7.80;99.90
25346;DHT22;13300;51.032;3.710;2023-03-04T00:26:55;7.80;99.90
25346;DHT22;13300;51.032;3.710;2023-03-04T00:29:20;7.70;99.90
25346;DHT22;13300;51.032;3.710;2023-03-04T00:31:46;7.70;99.90
25346;DHT22;13300;51.032;3.710;2023-03-04T00:34:12;7.70;99.90
25346;DHT22;13300;51.032;3.710;2023-03-04T00:36:38;7.80;99.90
25346;DHT22;13300;51.032;3.710;2023-03-04T00:39:04;7.70;99.90
25346;DHT22;13300;51.032;3.710;2023-03-04T00:41:30;7.70;99.90
25346;DHT22;13300;51.032;3.710;2023-03-04T00:43:55;7.80;99.90
25346;DHT22;13300;51.032;3.710;2023-03-04T00:46:21;7.80;99.90
25346;DHT22;13300;51.032;3.710;2023-03-04T00:48:47;7.90;99.90
25346;DHT22;13300;51.032;3.710;2023-03-04T00:51:12;7.90;99.90
25346;DHT22;13300;51.032;3.710;2023-03-04T00:53:38;8.00;99.90
25346;DHT22;13300;51.032;3.710;2023-03-04T00:56:04;8.10;99.90
25346;DHT22;13300;51.032;3.710;2023-03-04T00:58:30;8.10;99.90
25346;DHT22;13300;51.032;3.710;2023-03-04T01:00:56;8.20;99.90
25346;DHT22;13300;51.032;3.710;2023-03-04T01:03:21;8.30;99.90
25346;DHT22;13300;51.032;3.710;2023-03-04T01:05:48;8.30;99.90
25346;DHT22;13300;51.032;3.710;2023-03-04T01:08:14;8.20;99.90
25346;DHT22;13300;51.032;3.710;2023-03-04T01:10:40;8.20;99.90
25346;DHT22;13300;51.032;3.710;2023-03-04T01:13:06;8.30;99.90
25346;DHT22;13300;51.032;3.710;2023-03-04T01:15:31;8.20;99.90
25346;DHT22;13300;51.032;3.710;2023-03-04T01:17:57;8.10;99.90
25346;DHT22;13300;51.032;3.710;2023-03-04T01:20:23;8.00;99.90
25346;DHT22;13300;51.032;3.710;2023-03-04T01:22:49;8.00;99.90
25346;DHT22;13300;51.032;3.710;2023-03-04T01:25:15;8.10;99.90
25346;DHT22;13300;51.032;3.710;2023-03-04T01:27:41;8.10;99.90
25346;DHT22;13300;51.032;3.710;2023-03-04T01:30:07;8.10;99.90
25346;DHT22;13300;51.032;3.710;2023-03-04T01:32:33;8.10;99.90
25346;DHT22;13300;51.032;3.710;2023-03-04T01:34:59;8.10;99.90
25346;DHT22;13300;51.032;3.710;2023-03-04T01:37:25;8.20;99.90
25346;DHT22;13300;51.032;3.710;2023-03-04T01:39:50;8.10;99.90
25346;DHT22;13300;51.032;3.710;2023-03-04T01:42:21;8.10;99.90
25346;DHT22;13300;51.032;3.710;2023-03-04T01:44:48;8.20;99.90
25346;DHT22;13300;51.032;3.710;2023-03-04T01:47:16;8.20;99.90
25346;DHT22;13300;51.032;3.710;2023-03-04T01:49:42;8.10;99.90
25346;DHT22;13300;51.032;3.710;2023-03-04T01:52:12;8.20;99.90
25346;DHT22;13300;51.032;3.710;2023-03-04T01:54:39;8.10;99.90
25346;DHT22;13300;51.032;3.710;2023-03-04T01:57:25;8.10;99.90
25346;DHT22;13300;51.032;3.710;2023-03-04T02:00:22;8.00;99.90
25346;DHT22;13300;51.032;3.710;2023-03-04T02:02:52;7.90;99.90
25346;DHT22;13300;51.032;3.710;2023-03-04T02:05:18;8.00;99.90
25346;DHT22;13300;51.032;3.710;2023-03-04T02:07:45;8.00;99.90
25346;DHT22;13300;51.032;3.710;2023-03-04T02:10:11;7.90;99.90
25346;DHT22;13300;51.032;3.710;2023-03-04T02:12:38;7.80;99.90
25346;DHT22;13300;51.032;3.710;2023-03-04T02:15:05;7.80;99.90
25346;DHT22;13300;51.032;3.710;2023-03-04T02:17:31;7.70;99.90
25346;DHT22;13300;51.032;3.710;2023-03-04T02:20:18;7.80;99.90
25346;DHT22;13300;51.032;3.710;2023-03-04T02:22:58;7.60;99.90
25346;DHT22;13300;51.032;3.710;2023-03-04T02:25:36;7.70;99.90
25346;DHT22;13300;51.032;3.710;2023-03-04T02:28:04;7.80;99.90
25346;DHT22;13300;51.032;3.710;2023-03-04T02:30:30;7.70;99.90
25346;DHT22;13300;51.032;3.710;2023-03-04T02:32:56;7.70;99.90
25346;DHT22;13300;51.032;3.710;2023-03-04T02:35:22;7.70;99.90
25346;DHT22;13300;51.032;3.710;2023-03-04T02:37:47;7.70;99.90
25346;DHT22;13300;51.032;3.710;2023-03-04T02:40:29;7.80;99.90
25346;DHT22;13300;51.032;3.710;2023-03-04T02:42:58;7.90;99.90
25346;DHT22;13300;51.032;3.710;2023-03-04T02:45:44;7.90;99.90
25346;DHT22;13300;51.032;3.710;2023-03-04T02:48:11;7.90;99.90
25346;DHT22;13300;51.032;3.710;2023-03-04T02:50:42;8.00;99.90
25346;DHT22;13300;51.032;3.710;2023-03-04T02:53:08;8.00;99.90
25346;DHT22;13300;51.032;3.710;2023-03-04T02:55:34;8.00;99.90
25346;DHT22;13300;51.032;3.710;2023-03-04T02:58:00;8.00;99.90
25346;DHT22;13300;51.032;3.710;2023-03-04T03:00:27;8.00;99.90
25346;DHT22;13300;51.032;3.710;2023-03-04T03:02:53;8.00;99.90
25346;DHT22;13300;51.032;3.710;2023-03-04T03:05:22;8.00;99.90
25346;DHT22;13300;51.032;3.710;2023-03-04T03:07:48;7.90;99.90
25346;DHT22;13300;51.032;3.710;2023-03-04T03:10:14;7.80;99.90
25346;DHT22;13300;51.032;3.710;2023-03-04T03:12:45;7.80;99.90
25346;DHT22;13300;51.032;3.710;2023-03-04T03:15:11;7.80;99.90
25346;DHT22;13300;51.032;3.710;2023-03-04T03:17:37;7.70;99.90
25346;DHT22;13300;51.032;3.710;2023-03-04T03:20:03;7.60;99.90
25346;DHT22;13300;51.032;3.710;2023-03-04T03:22:29;7.60;99.90
25346;DHT22;13300;51.032;3.710;2023-03-04T03:24:55;7.60;99.90
25346;DHT22;13300;51.032;3.710;2023-03-04T03:27:21;7.50;99.90
25346;DHT22;13300;51.032;3.710;2023-03-04T03:29:46;7.50;99.90
25346;DHT22;13300;51.032;3.710;2023-03-04T03:32:12;7.60;99.90
25346;DHT22;13300;51.032;3.710;2023-03-04T03:34:38;7.50;99.90
25346;DHT22;13300;51.032;3.710;2023-03-04T03:37:04;7.50;99.90
25346;DHT22;13300;51.032;3.710;2023-03-04T03:39:29;7.50;99.90
25346;DHT22;13300;51.032;3.710;2023-03-04T03:41:55;7.60;99.90
25346;DHT22;13300;51.032;3.710;2023-03-04T03:44:21;7.60;99.90
25346;DHT22;13300;51.032;3.710;2023-03-04T03:46:46;7.60;99.90
25346;DHT22;13300;51.032;3.710;2023-03-04T03:49:12;7.60;99.90
25346;DHT22;13300;51.032;3.710;2023-03-04T03:51:38;7.60;99.90
25346;DHT22;13300;51.032;3.710;2023-03-04T03:54:04;7.70;99.90
25346;DHT22;13300;51.032;3.710;2023-03-04T03:56:29;7.80;99.90
25346;DHT22;13300;51.032;3.710;2023-03-04T03:58:55;7.90;99.90
25346;DHT22;13300;51.032;3.710;2023-03-04T04:01:21;7.90;99.90
25346;DHT22;13300;51.032;3.710;2023-03-04T04:03:46;8.00;99.90
25346;DHT22;13300;51.032;3.710;2023-03-04T04:06:15;7.90;99.90
25346;DHT22;13300;51.032;3.710;2023-03-04T04:08:41;7.90;99.90
25346;DHT22;13300;51.032;3.710;2023-03-04T04:11:09;7.90;99.90
25346;DHT22;13300;51.032;3.710;2023-03-04T04:13:35;8.00;99.90
25346;DHT22;13300;51.032;3.710;2023-03-04T04:16:01;8.00;99.90
25346;DHT22;13300;51.032;3.710;2023-03-04T04:18:26;7.90;99.90
25346;DHT22;13300;51.032;3.710;2023-03-04T04:20:52;7.90;99.90
25346;DHT22;13300;51.032;3.710;2023-03-04T04:23:18;7.80;99.90
25346;DHT22;13300;51.032;3.710;2023-03-04T04:25:44;7.90;99.90
25346;DHT22;13300;51.032;3.710;2023-03-04T04:28:10;7.90;99.90
25346;DHT22;13300;51.032;3.710;2023-03-04T04:30:35;7.90;99.90
25346;DHT22;13300;51.032;3.710;2023-03-04T04:33:02;7.90;99.90
25346;DHT22;13300;51.032;3.710;2023-03-04T04:35:30;8.00;99.90
25346;DHT22;13300;51.032;3.710;2023-03-04T04:37:56;7.90;99.90
25346;DHT22;13300;51.032;3.710;2023-03-04T04:40:22;7.80;99.90
25346;DHT22;13300;51.032;3.710;2023-03-04T04:42:48;7.90;99.90
25346;DHT22;13300;51.032;3.710;2023-03-04T04:45:13;8.00;99.90
25346;DHT22;13300;51.032;3.710;2023-03-04T04:47:39;8.00;99.90
25346;DHT22;13300;51.032;3.710;2023-03-04T04:50:05;8.00;99.90
25346;DHT22;13300;51.032;3.710;2023-03-04T04:52:31;8.00;99.90
25346;DHT22;13300;51.032;3.710;2023-03-04T04:54:57;8.00;99.90
25346;DHT22;13300;51.032;3.710;2023-03-04T04:57:23;8.00;99.90
25346;DHT22;13300;51.032;3.710;2023-03-04T04:59:49;8.10;99.90
25346;DHT22;13300;51.032;3.710;2023-03-04T05:02:15;8.10;99.90
25346;DHT22;13300;51.032;3.710;2023-03-04T05:04:40;8.10;99.90
25346;DHT22;13300;51.032;3.710;2023-03-04T05:07:06;8.10;99.90
25346;DHT22;13300;51.032;3.710;2023-03-04T05:09:32;8.10;99.90
25346;DHT22;13300;51.032;3.710;2023-03-04T05:11:58;8.10;99.90
25346;DHT22;13300;51.032;3.710;2023-03-04T05:14:25;8.00;99.90
25346;DHT22;13300;51.032;3.710;2023-03-04T05:16:50;8.10;99.90
25346;DHT22;13300;51.032;3.710;2023-03-04T05:19:18;8.10;99.90
25346;DHT22;13300;51.032;3.710;2023-03-04T05:21:44;8.20;99.90
25346;DHT22;13300;51.032;3.710;2023-03-04T05:24:10;8.10;99.90
25346;DHT22;13300;51.032;3.710;2023-03-04T05:26:38;8.10;99.90
25346;DHT22;13300;51.032;3.710;2023-03-04T05:29:03;8.20;99.90
25346;DHT22;13300;51.032;3.710;2023-03-04T05:31:29;8.10;99.90
25346;DHT22;13300;51.032;3.710;2023-03-04T05:33:55;8.10;99.90
25346;DHT22;13300;51.032;3.710;2023-03-04T05:36:21;8.20;99.90
25346;DHT22;13300;51.032;3.710;2023-03-04T05:38:46;8.20;99.90
25346;DHT22;13300;51.032;3.710;2023-03-04T05:41:12;8.00;99.90
25346;DHT22;13300;51.032;3.710;2023-03-04T05:43:38;8.10;99.90
25346;DHT22;13300;51.032;3.710;2023-03-04T05:46:08;8.10;99.90
25346;DHT22;13300;51.032;3.710;2023-03-04T05:48:36;8.10;99.90
25346;DHT22;13300;51.032;3.710;2023-03-04T05:51:02;8.10;99.90
25346;DHT22;13300;51.032;3.710;2023-03-04T05:53:28;8.00;99.90
25346;DHT22;13300;51.032;3.710;2023-03-04T05:55:53;7.90;99.90
25346;DHT22;13300;51.032;3.710;2023-03-04T05:58:20;7.90;99.90
25346;DHT22;13300;51.032;3.710;2023-03-04T06:00:46;7.80;99.90
25346;DHT22;13300;51.032;3.710;2023-03-04T06:03:17;7.70;99.90
25346;DHT22;13300;51.032;3.710;2023-03-04T06:05:43;7.70;99.90
25346;DHT22;13300;51.032;3.710;2023-03-04T06:08:10;7.70;99.90
25346;DHT22;13300;51.032;3.710;2023-03-04T06:10:36;7.70;99.90
25346;DHT22;13300;51.032;3.710;2023-03-04T06:13:02;7.70;99.90
25346;DHT22;13300;51.032;3.710;2023-03-04T06:15:28;7.80;99.90
25346;DHT22;13300;51.032;3.710;2023-03-04T06:17:53;7.80;99.90
25346;DHT22;13300;51.032;3.710;2023-03-04T06:20:19;7.70;99.90
25346;DHT22;13300;51.032;3.710;2023-03-04T06:22:45;7.60;99.90
25346;DHT22;13300;51.032;3.710;2023-03-04T06:25:11;7.70;99.90
25346;DHT22;13300;51.032;3.710;2023-03-04T06:27:37;7.80;99.90
25346;DHT22;13300;51.032;3.710;2023-03-04T06:30:03;7.80;99.90
25346;DHT22;13300;51.032;3.710;2023-03-04T06:32:29;7.70;99.90
25346;DHT22;13300;51.032;3.710;2023-03-04T06:34:55;7.70;99.90
25346;DHT22;13300;51.032;3.710;2023-03-04T06:37:21;7.80;99.90
25346;DHT22;13300;51.032;3.710;2023-03-04T06:39:47;7.80;99.90
25346;DHT22;13300;51.032;3.710;2023-03-04T06:42:13;7.80;99.90
25346;DHT22;13300;51.032;3.710;2023-03-04T06:44:39;7.80;99.90
25346;DHT22;13300;51.032;3.710;2023-03-04T06:47:05;7.80;99.90
25346;DHT22;13300;51.032;3.710;2023-03-04T06:49:31;7.80;99.90
25346;DHT22;13300;51.032;3.710;2023-03-04T06:51:57;7.70;99.90
25346;DHT22;13300;51.032;3.710;2023-03-04T06:54:23;7.70;99.90
25346;DHT22;13300;51.032;3.710;2023-03-04T06:56:49;7.60;99.90
25346;DHT22;13300;51.032;3.710;2023-03-04T06:59:15;7.70;99.90
25346;DHT22;13300;51.032;3.710;2023-03-04T07:01:40;7.70;99.90
25346;DHT22;13300;51.032;3.710;2023-03-04T07:04:06;7.80;99.90
25346;DHT22;13300;51.032;3.710;2023-03-04T07:06:32;7.80;99.90
25346;DHT22;13300;51.032;3.710;2023-03-04T07:08:58;7.70;99.90
25346;DHT22;13300;51.032;3.710;2023-03-04T07:11:24;7.80;99.90
25346;DHT22;13300;51.032;3.710;2023-03-04T07:13:50;7.80;99.90
25346;DHT22;13300;51.032;3.710;2023-03-04T07:16:19;7.90;99.90
25346;DHT22;13300;51.032;3.710;2023-03-04T07:18:45;8.00;99.90
25346;DHT22;13300;51.032;3.710;2023-03-04T07:21:12;8.00;99.90
25346;DHT22;13300;51.032;3.710;2023-03-04T07:23:38;8.00;99.90
25346;DHT22;13300;51.032;3.710;2023-03-04T07:26:05;8.00;99.90
25346;DHT22;13300;51.032;3.710;2023-03-04T07:28:31;8.10;99.90
25346;DHT22;13300;51.032;3.710;2023-03-04T07:31:06;8.00;99.90
25346;DHT22;13300;51.032;3.710;2023-03-04T07:33:32;8.00;99.90
25346;DHT22;13300;51.032;3.710;2023-03-04T07:35:59;7.90;99.90
25346;DHT22;13300;51.032;3.710;2023-03-04T07:38:24;7.70;99.90
25346;DHT22;13300;51.032;3.710;2023-03-04T07:40:57;7.50;99.90
25346;DHT22;13300;51.032;3.710;2023-03-04T07:43:23;7.50;99.90
25346;DHT22;13300;51.032;3.710;2023-03-04T07:45:49;7.50;99.90
25346;DHT22;13300;51.032;3.710;2023-03-04T07:48:15;7.60;99.90
25346;DHT22;13300;51.032;3.710;2023-03-04T07:50:43;7.70;99.90
25346;DHT22;13300;51.032;3.710;2023-03-04T07:53:09;7.80;99.90
25346;DHT22;13300;51.032;3.710;2023-03-04T07:55:34;7.90;99.90
25346;DHT22;13300;51.032;3.710;2023-03-04T07:58:00;8.00;99.90
25346;DHT22;13300;51.032;3.710;2023-03-04T08:00:27;8.00;99.90
25346;DHT22;13300;51.032;3.710;2023-03-04T08:02:53;8.00;99.90
25346;DHT22;13300;51.032;3.710;2023-03-04T08:05:18;8.00;99.90
25346;DHT22;13300;51.032;3.710;2023-03-04T08:07:44;8.10;99.90
25346;DHT22;13300;51.032;3.710;2023-03-04T08:10:10;8.20;99.90
25346;DHT22;13300;51.032;3.710;2023-03-04T08:12:36;8.30;99.90
25346;DHT22;13300;51.032;3.710;2023-03-04T08:15:02;8.40;99.90
25346;DHT22;13300;51.032;3.710;2023-03-04T08:17:28;8.60;99.90
25346;DHT22;13300;51.032;3.710;2023-03-04T08:19:54;8.60;99.90
25346;DHT22;13300;51.032;3.710;2023-03-04T08:22:23;8.70;99.90
25346;DHT22;13300;51.032;3.710;2023-03-04T08:24:49;8.70;99.90
25346;DHT22;13300;51.032;3.710;2023-03-04T08:27:15;8.70;99.90
25346;DHT22;13300;51.032;3.710;2023-03-04T08:29:40;8.60;99.90
25346;DHT22;13300;51.032;3.710;2023-03-04T08:32:06;8.70;99.90
25346;DHT22;13300;51.032;3.710;2023-03-04T08:34:32;8.60;99.90
25346;DHT22;13300;51.032;3.710;2023-03-04T08:36:57;8.60;99.90
25346;DHT22;13300;51.032;3.710;2023-03-04T08:39:23;8.40;99.90
25346;DHT22;13300;51.032;3.710;2023-03-04T08:41:49;8.40;99.90
25346;DHT22;13300;51.032;3.710;2023-03-04T08:44:15;8.30;99.90
25346;DHT22;13300;51.032;3.710;2023-03-04T08:46:42;8.20;99.90
25346;DHT22;13300;51.032;3.710;2023-03-04T08:49:10;8.20;99.90
25346;DHT22;13300;51.032;3.710;2023-03-04T08:51:37;8.10;99.90
25346;DHT22;13300;51.032;3.710;2023-03-04T08:54:03;8.20;99.90
25346;DHT22;13300;51.032;3.710;2023-03-04T08:56:29;8.20;99.90
25346;DHT22;13300;51.032;3.710;2023-03-04T08:58:55;8.30;99.90
25346;DHT22;13300;51.032;3.710;2023-03-04T09:01:21;8.50;99.90
25346;DHT22;13300;51.032;3.710;2023-03-04T09:03:47;8.50;99.90
25346;DHT22;13300;51.032;3.710;2023-03-04T09:06:17;8.60;99.90
25346;DHT22;13300;51.032;3.710;2023-03-04T09:08:44;8.80;99.90
25346;DHT22;13300;51.032;3.710;2023-03-04T09:11:10;8.90;99.90
25346;DHT22;13300;51.032;3.710;2023-03-04T09:13:37;8.90;99.90
25346;DHT22;13300;51.032;3.710;2023-03-04T09:16:07;9.00;99.90
25346;DHT22;13300;51.032;3.710;2023-03-04T09:18:36;9.10;99.90
25346;DHT22;13300;51.032;3.710;2023-03-04T09:21:08;9.10;99.90
25346;DHT22;13300;51.032;3.710;2023-03-04T09:23:34;9.10;99.90
25346;DHT22;13300;51.032;3.710;2023-03-04T09:26:01;9.10;99.90
25346;DHT22;13300;51.032;3.710;2023-03-04T09:28:26;9.00;99.90
25346;DHT22;13300;51.032;3.710;2023-03-04T09:30:52;8.80;99.90
25346;DHT22;13300;51.032;3.710;2023-03-04T09:33:20;8.70;99.90
25346;DHT22;13300;51.032;3.710;2023-03-04T09:35:46;8.80;99.90
25346;DHT22;13300;51.032;3.710;2023-03-04T09:38:14;8.80;99.90
25346;DHT22;13300;51.032;3.710;2023-03-04T09:41:06;8.90;99.90
25346;DHT22;13300;51.032;3.710;2023-03-04T09:43:59;9.10;99.90
25346;DHT22;13300;51.032;3.710;2023-03-04T09:46:49;9.20;99.90
25346;DHT22;13300;51.032;3.710;2023-03-04T09:49:24;9.40;99.90
25346;DHT22;13300;51.032;3.710;2023-03-04T09:57:55;9.60;99.90
25346;DHT22;13300;51.032;3.710;2023-03-04T10:00:42;9.40;99.90
25346;DHT22;13300;51.032;3.710;2023-03-04T10:03:14;9.60;99.90
25346;DHT22;13300;51.032;3.710;2023-03-04T10:06:00;9.50;99.90
25346;DHT22;13300;51.032;3.710;2023-03-04T10:11:47;9.30;99.90
25346;DHT22;13300;51.032;3.710;2023-03-04T10:16:51;9.40;99.90
25346;DHT22;13300;51.032;3.710;2023-03-04T10:19:30;9.40;99.90
25346;DHT22;13300;51.032;3.710;2023-03-04T10:21:58;9.40;99.90
25346;DHT22;13300;51.032;3.710;2023-03-04T10:24:27;9.60;99.90
25346;DHT22;13300;51.032;3.710;2023-03-04T10:26:59;9.70;99.90
25346;DHT22;13300;51.032;3.710;2023-03-04T10:29:28;9.80;99.90
25346;DHT22;13300;51.032;3.710;2023-03-04T10:31:54;10.00;99.90
25346;DHT22;13300;51.032;3.710;2023-03-04T10:34:23;10.10;99.90
25346;DHT22;13300;51.032;3.710;2023-03-04T10:36:59;10.20;99.90
25346;DHT22;13300;51.032;3.710;2023-03-04T10:39:28;10.00;99.90
25346;DHT22;13300;51.032;3.710;2023-03-04T10:42:01;9.80;99.90
25346;DHT22;13300;51.032;3.710;2023-03-04T10:44:31;9.80;99.90
25346;DHT22;13300;51.032;3.710;2023-03-04T10:46:58;10.00;99.90
25346;DHT22;13300;51.032;3.710;2023-03-04T10:49:26;10.20;99.90
25346;DHT22;13300;51.032;3.710;2023-03-04T10:52:12;10.40;99.90
25346;DHT22;13300;51.032;3.710;2023-03-04T10:54:54;10.40;99.90
25346;DHT22;13300;51.032;3.710;2023-03-04T10:57:51;10.40;99.90
25346;DHT22;13300;51.032;3.710;2023-03-04T11:02:51;10.30;99.90
25346;DHT22;13300;51.032;3.710;2023-03-04T11:05:23;10.40;99.90
25346;DHT22;13300;51.032;3.710;2023-03-04T11:15:25;10.10;99.90
25346;DHT22;13300;51.032;3.710;2023-03-04T11:17:58;10.10;99.90
25346;DHT22;13300;51.032;3.710;2023-03-04T11:20:29;10.30;99.90
25346;DHT22;13300;51.032;3.710;2023-03-04T11:23:10;11.20;99.90
25346;DHT22;13300;51.032;3.710;2023-03-04T11:25:43;12.30;99.90
25346;DHT22;13300;51.032;3.710;2023-03-04T11:28:21;13.80;99.90
25346;DHT22;13300;51.032;3.710;2023-03-04T11:30:49;15.10;99.90
25346;DHT22;13300;51.032;3.710;2023-03-04T11:33:27;16.00;99.90
25346;DHT22;13300;51.032;3.710;2023-03-04T11:40:03;17.30;99.90
25346;DHT22;13300;51.032;3.710;2023-03-04T11:42:50;15.80;99.90
25346;DHT22;13300;51.032;3.710;2023-03-04T11:58:47;11.80;99.90
25346;DHT22;13300;51.032;3.710;2023-03-04T12:10:44;11.40;99.90
25346;DHT22;13300;51.032;3.710;2023-03-04T12:19:36;11.40;99.90
25346;DHT22;13300;51.032;3.710;2023-03-04T12:22:21;11.20;99.90
25346;DHT22;13300;51.032;3.710;2023-03-04T12:25:33;11.00;99.90
25346;DHT22;13300;51.032;3.710;2023-03-04T12:44:13;10.20;99.90
25346;DHT22;13300;51.032;3.710;2023-03-04T12:52:15;10.60;99.90
25346;DHT22;13300;51.032;3.710;2023-03-04T12:54:50;10.90;99.90
25346;DHT22;13300;51.032;3.710;2023-03-04T12:57:28;10.80;99.90
25346;DHT22;13300;51.032;3.710;2023-03-04T13:02:58;10.60;99.90
25346;DHT22;13300;51.032;3.710;2023-03-04T13:08:40;10.30;99.90
25346;DHT22;13300;51.032;3.710;2023-03-04T13:11:42;10.20;99.90
25346;DHT22;13300;51.032;3.710;2023-03-04T13:16:57;10.40;99.90
25346;DHT22;13300;51.032;3.710;2023-03-04T13:19:49;10.30;99.90
25346;DHT22;13300;51.032;3.710;2023-03-04T13:51:39;10.20;99.90
25346;DHT22;13300;51.032;3.710;2023-03-04T13:54:46;10.20;99.90
25346;DHT22;13300;51.032;3.710;2023-03-04T13:57:18;10.10;99.90
25346;DHT22;13300;51.032;3.710;2023-03-04T13:59:53;9.90;99.90
25346;DHT22;13300;51.032;3.710;2023-03-04T14:02:21;9.90;99.90
25346;DHT22;13300;51.032;3.710;2023-03-04T14:07:28;9.80;99.90
25346;DHT22;13300;51.032;3.710;2023-03-04T14:10:27;9.80;99.90
25346;DHT22;13300;51.032;3.710;2023-03-04T14:12:59;9.90;99.90
25346;DHT22;13300;51.032;3.710;2023-03-04T14:15:30;9.90;99.90
25346;DHT22;13300;51.032;3.710;2023-03-04T14:18:01;10.00;99.90
25346;DHT22;13300;51.032;3.710;2023-03-04T14:20:34;10.00;99.90
25346;DHT22;13300;51.032;3.710;2023-03-04T14:23:02;10.20;99.90
25346;DHT22;13300;51.032;3.710;2023-03-04T14:25:33;10.50;99.90
25346;DHT22;13300;51.032;3.710;2023-03-04T14:28:10;10.70;99.90
25346;DHT22;13300;51.032;3.710;2023-03-04T14:30:37;10.80;99.90
25346;DHT22;13300;51.032;3.710;2023-03-04T14:33:06;11.10;99.90
25346;DHT22;13300;51.032;3.710;2023-03-04T14:35:33;11.30;99.90
25346;DHT22;13300;51.032;3.710;2023-03-04T14:38:22;11.20;99.90
25346;DHT22;13300;51.032;3.710;2023-03-04T14:43:37;10.80;99.90
25346;DHT22;13300;51.032;3.710;2023-03-04T14:46:07;10.90;99.90
25346;DHT22;13300;51.032;3.710;2023-03-04T14:48:35;10.90;99.90
25346;DHT22;13300;51.032;3.710;2023-03-04T14:51:02;10.90;99.90
25346;DHT22;13300;51.032;3.710;2023-03-04T14:53:30;10.90;99.90
25346;DHT22;13300;51.032;3.710;2023-03-04T14:56:07;10.80;99.90
25346;DHT22;13300;51.032;3.710;2023-03-04T14:58:37;10.80;99.90
25346;DHT22;13300;51.032;3.710;2023-03-04T15:01:12;10.80;99.90
25346;DHT22;13300;51.032;3.710;2023-03-04T15:03:40;10.70;99.90
25346;DHT22;13300;51.032;3.710;2023-03-04T15:06:19;10.50;99.90
25346;DHT22;13300;51.032;3.710;2023-03-04T15:11:48;9.90;99.90
25346;DHT22;13300;51.032;3.710;2023-03-04T15:14:48;9.60;99.90
25346;DHT22;13300;51.032;3.710;2023-03-04T15:20:21;9.40;99.90
25346;DHT22;13300;51.032;3.710;2023-03-04T15:25:17;9.50;99.90
25346;DHT22;13300;51.032;3.710;2023-03-04T15:27:45;9.60;99.90
25346;DHT22;13300;51.032;3.710;2023-03-04T15:30:28;9.60;99.90
25346;DHT22;13300;51.032;3.710;2023-03-04T15:32:56;9.60;99.90
25346;DHT22;13300;51.032;3.710;2023-03-04T15:35:23;9.70;99.90
25346;DHT22;13300;51.032;3.710;2023-03-04T15:37:52;9.80;99.90
25346;DHT22;13300;51.032;3.710;2023-03-04T15:40:26;9.90;99.90
25346;DHT22;13300;51.032;3.710;2023-03-04T15:42:58;10.00;99.90
25346;DHT22;13300;51.032;3.710;2023-03-04T15:45:27;10.00;99.90
25346;DHT22;13300;51.032;3.710;2023-03-04T15:47:56;10.10;99.90
25346;DHT22;13300;51.032;3.710;2023-03-04T15:50:27;10.20;99.90
25346;DHT22;13300;51.032;3.710;2023-03-04T15:52:56;10.20;99.90
25346;DHT22;13300;51.032;3.710;2023-03-04T15:55:23;10.30;99.90
25346;DHT22;13300;51.032;3.710;2023-03-04T15:57:53;10.40;99.90
25346;DHT22;13300;51.032;3.710;2023-03-04T16:00:20;10.50;99.90
25346;DHT22;13300;51.032;3.710;2023-03-04T16:02:46;10.60;99.90
25346;DHT22;13300;51.032;3.710;2023-03-04T16:05:12;10.60;99.90
25346;DHT22;13300;51.032;3.710;2023-03-04T16:07:41;10.50;99.90
25346;DHT22;13300;51.032;3.710;2023-03-04T16:12:44;10.50;99.90
25346;DHT22;13300;51.032;3.710;2023-03-04T16:15:16;10.40;99.90
25346;DHT22;13300;51.032;3.710;2023-03-04T16:17:42;10.30;99.90
25346;DHT22;13300;51.032;3.710;2023-03-04T16:20:10;10.10;99.90
25346;DHT22;13300;51.032;3.710;2023-03-04T16:22:37;9.90;99.90
25346;DHT22;13300;51.032;3.710;2023-03-04T16:25:04;9.80;99.90
25346;DHT22;13300;51.032;3.710;2023-03-04T16:27:30;9.80;99.90
25346;DHT22;13300;51.032;3.710;2023-03-04T16:29:56;9.80;99.90
25346;DHT22;13300;51.032;3.710;2023-03-04T16:32:22;9.80;99.90
25346;DHT22;13300;51.032;3.710;2023-03-04T16:34:49;9.70;99.90
25346;DHT22;13300;51.032;3.710;2023-03-04T16:37:18;9.50;99.90
25346;DHT22;13300;51.032;3.710;2023-03-04T16:39:45;9.40;99.90
25346;DHT22;13300;51.032;3.710;2023-03-04T16:42:15;9.30;99.90
25346;DHT22;13300;51.032;3.710;2023-03-04T16:44:41;9.10;99.90
25346;DHT22;13300;51.032;3.710;2023-03-04T16:47:07;9.00;99.90
25346;DHT22;13300;51.032;3.710;2023-03-04T16:49:33;8.90;99.90
25346;DHT22;13300;51.032;3.710;2023-03-04T16:51:59;9.00;99.90
25346;DHT22;13300;51.032;3.710;2023-03-04T16:54:28;9.10;99.90
25346;DHT22;13300;51.032;3.710;2023-03-04T16:56:55;9.10;99.90
25346;DHT22;13300;51.032;3.710;2023-03-04T16:59:21;9.10;99.90
25346;DHT22;13300;51.032;3.710;2023-03-04T17:01:47;9.10;99.90
25346;DHT22;13300;51.032;3.710;2023-03-04T17:04:16;9.10;99.90
25346;DHT22;13300;51.032;3.710;2023-03-04T17:06:41;9.10;99.90
25346;DHT22;13300;51.032;3.710;2023-03-04T17:09:08;9.10;99.90
25346;DHT22;13300;51.032;3.710;2023-03-04T17:11:34;9.00;99.90
25346;DHT22;13300;51.032;3.710;2023-03-04T17:14:00;8.90;99.90
25346;DHT22;13300;51.032;3.710;2023-03-04T17:16:25;9.00;99.90
25346;DHT22;13300;51.032;3.710;2023-03-04T17:18:52;8.90;99.90
25346;DHT22;13300;51.032;3.710;2023-03-04T17:21:21;8.90;99.90
25346;DHT22;13300;51.032;3.710;2023-03-04T17:23:47;8.80;99.90
25346;DHT22;13300;51.032;3.710;2023-03-04T17:26:13;8.80;99.90
25346;DHT22;13300;51.032;3.710;2023-03-04T17:28:40;8.70;99.90
25346;DHT22;13300;51.032;3.710;2023-03-04T17:31:10;8.70;99.90
25346;DHT22;13300;51.032;3.710;2023-03-04T17:33:36;8.70;99.90
25346;DHT22;13300;51.032;3.710;2023-03-04T17:36:02;8.70;99.90
25346;DHT22;13300;51.032;3.710;2023-03-04T17:38:28;8.60;99.90
25346;DHT22;13300;51.032;3.710;2023-03-04T17:40:54;8.60;99.90
25346;DHT22;13300;51.032;3.710;2023-03-04T17:43:21;8.60;99.90
25346;DHT22;13300;51.032;3.710;2023-03-04T17:45:47;8.60;99.90
25346;DHT22;13300;51.032;3.710;2023-03-04T17:48:13;8.60;99.90
25346;DHT22;13300;51.032;3.710;2023-03-04T17:50:51;8.60;99.90
25346;DHT22;13300;51.032;3.710;2023-03-04T17:53:23;8.60;99.90
25346;DHT22;13300;51.032;3.710;2023-03-04T17:55:54;8.60;99.90
25346;DHT22;13300;51.032;3.710;2023-03-04T17:58:21;8.60;99.90
25346;DHT22;13300;51.032;3.710;2023-03-04T18:00:51;8.60;99.90
25346;DHT22;13300;51.032;3.710;2023-03-04T18:03:18;8.60;99.90